Main page
METAR-TAF:

METAR-TAF

Airports :

Benbecula Airport

Benbecula, Scotland

latitude: 57-28N, longitude: 007-22W, elevation: 6 m

Current weather observation

The report was made 28 minutes ago, at 22:20 UTC
Wind 15 kt from the East/Northeast
Temperature 6°C
Humidity 75%
Pressure 1021 hPa
Visibility 10 km or more

METAR: EGPL 202220Z AUTO 07015KT 9999 NCD 06/02 Q1021

Time: 22:48 (22:48 UTC)

Forecast

The report was made 8 hours and 49 minutes ago, at 13:59 UTC
Forecast valid from 20 at 15 UTC to 20 at 17 UTC
Wind 14 kt from the East/Northeast
Visibility 10 km or more
Few clouds at a height of 2500 ft
Probability 30% :
Temporary
from 20 at 15 UTC to 20 at 17 UTC
Wind 17 kt from the East with gusts up to 27 kt

TAF: EGPL 201359Z 2015/2017 07014KT 9999 FEW025 PROB30 TEMPO 2015/2017 08017G27KT

Weather observations and forecasts of more than 4000 airports (METAR and TAF reports).

The available stations are represented by yellow and red dots on the map.

Hover mouse over dot to see the name of the station.

Then click to see weather observations and forecasts.

To change the map : click on the green buttons with a black cross to zoom in, on the green button with a dash to zoom out, or on the green arrows for adjacent maps.


METAR-TAF: